createdAt,value
2019-03-03T00:00:50.390Z,95.5
2019-03-03T00:02:50.063Z,95.9
2019-03-03T00:04:50.545Z,96.4
2019-03-03T00:06:50.932Z,97.1
2019-03-03T00:08:50.186Z,96.7
2019-03-03T00:10:50.348Z,96.5
2019-03-03T00:12:50.518Z,96.7
2019-03-03T00:14:50.678Z,96.5
2019-03-03T00:16:50.053Z,96.7
2019-03-03T00:18:50.217Z,96.6
2019-03-03T00:20:50.323Z,96.9
2019-03-03T00:22:50.447Z,97.1
2019-03-03T00:24:50.600Z,96.8
2019-03-03T00:26:50.894Z,96.8
2019-03-03T00:28:50.110Z,96.5
2019-03-03T00:30:50.247Z,96.5
2019-03-03T00:32:50.438Z,96.3
2019-03-03T00:34:50.007Z,96.3
2019-03-03T00:36:50.161Z,96.4
2019-03-03T00:38:50.833Z,96.3
2019-03-03T00:40:49.960Z,96.1
2019-03-03T00:42:50.172Z,96.0
2019-03-03T00:44:50.888Z,95.9
2019-03-03T00:46:50.223Z,95.7
2019-03-03T00:48:50.319Z,95.6
2019-03-03T00:50:50.466Z,95.6
2019-03-03T00:54:50.376Z,95.8
2019-03-03T00:56:49.981Z,95.7
2019-03-03T00:58:50.185Z,95.8
2019-03-03T01:00:51.632Z,95.7
2019-03-03T01:02:50.770Z,95.5
2019-03-03T01:04:50.555Z,95.7
2019-03-03T01:06:50.888Z,95.7
2019-03-03T01:08:50.048Z,95.7
2019-03-03T01:10:50.758Z,95.5
2019-03-03T01:12:50.723Z,95.4
2019-03-03T01:14:50.003Z,95.2
2019-03-03T01:16:50.347Z,95.1
2019-03-03T01:18:50.494Z,95.2
2019-03-03T01:20:50.629Z,95.1
2019-03-03T01:22:50.896Z,95.6
2019-03-03T01:24:49.970Z,95.6
2019-03-03T01:26:50.884Z,95.7
2019-03-03T01:28:50.176Z,95.9
2019-03-03T01:30:50.367Z,95.6
2019-03-03T01:32:50.440Z,95.5
2019-03-03T01:34:50.115Z,95.7
2019-03-03T01:36:50.398Z,95.6
2019-03-03T01:38:50.534Z,95.7
2019-03-03T01:40:50.736Z,95.7
2019-03-03T01:42:49.978Z,95.5
2019-03-03T01:44:50.161Z,95.9
2019-03-03T01:46:50.491Z,95.9
2019-03-03T01:48:50.691Z,96.2
2019-03-03T01:50:50.846Z,96.3
2019-03-03T01:52:50.125Z,96.2
2019-03-03T01:54:50.273Z,96.0
2019-03-03T01:56:50.538Z,96.1
2019-03-03T01:58:50.700Z,96.1
2019-03-03T02:00:50.982Z,96.1
2019-03-03T02:02:50.141Z,95.9
2019-03-03T02:04:50.624Z,96.0
2019-03-03T02:06:49.970Z,95.9
2019-03-03T02:08:50.264Z,95.9
2019-03-03T02:10:50.396Z,95.8
2019-03-03T02:12:50.810Z,95.8
2019-03-03T02:14:50.051Z,95.2
2019-03-03T02:16:50.362Z,95.0
2019-03-03T02:18:50.550Z,95.1
2019-03-03T02:20:50.682Z,95.2
2019-03-03T02:22:50.964Z,96.0
2019-03-03T02:24:50.262Z,95.0
2019-03-03T02:26:50.516Z,94.6
2019-03-03T02:28:50.646Z,95.0
2019-03-03T02:30:50.006Z,94.2
2019-03-03T02:32:50.293Z,94.3
2019-03-03T02:34:49.959Z,94.8
2019-03-03T02:36:50.262Z,94.6
2019-03-03T02:38:50.574Z,94.3
2019-03-03T02:40:50.802Z,94.8
2019-03-03T02:42:49.978Z,94.8
2019-03-03T02:44:50.170Z,94.7
2019-03-03T02:46:50.641Z,94.5
2019-03-03T02:48:50.874Z,93.9
2019-03-03T02:50:50.108Z,93.3
2019-03-03T02:52:50.274Z,92.9
2019-03-03T02:54:50.491Z,92.9
2019-03-03T02:56:50.849Z,93.1
2019-03-03T02:58:50.081Z,93.0
2019-03-03T03:00:50.295Z,93.5
2019-03-03T03:02:50.493Z,93.9
2019-03-03T03:04:50.165Z,94.0
2019-03-03T03:06:50.531Z,93.1
2019-03-03T03:08:50.669Z,92.9
2019-03-03T03:10:50.841Z,93.2
2019-03-03T03:12:50.285Z,93.1
2019-03-03T03:14:50.462Z,93.4
2019-03-03T03:16:50.849Z,93.1
2019-03-03T03:18:50.062Z,92.7
2019-03-03T03:20:50.225Z,92.4
2019-03-03T03:22:50.462Z,92.5
2019-03-03T03:24:50.406Z,92.9
2019-03-03T03:26:50.694Z,92.7
2019-03-03T03:28:50.928Z,92.4
2019-03-03T03:30:50.173Z,92.7
2019-03-03T03:32:50.427Z,92.2
2019-03-03T03:34:50.250Z,92.0
2019-03-03T03:36:50.642Z,92.1
2019-03-03T03:38:50.777Z,92.1
2019-03-03T03:40:50.023Z,92.2
2019-03-03T03:42:50.215Z,93.1
2019-03-03T03:44:50.385Z,93.1
2019-03-03T03:46:50.841Z,93.3
2019-03-03T03:48:50.165Z,93.3
2019-03-03T03:50:50.411Z,93.3
2019-03-03T03:52:50.697Z,93.5
2019-03-03T03:54:50.870Z,92.9
2019-03-03T03:56:50.263Z,93.8
2019-03-03T03:58:50.520Z,94.0
2019-03-03T04:00:50.822Z,93.4
2019-03-03T04:02:50.093Z,93.1
2019-03-03T04:04:50.565Z,92.4
2019-03-03T04:06:50.808Z,92.9
2019-03-03T04:08:50.268Z,92.2
2019-03-03T04:10:50.469Z,92.4
2019-03-03T04:12:50.590Z,92.4
2019-03-03T04:14:50.820Z,92.1
2019-03-03T04:16:50.359Z,92.4
2019-03-03T04:18:50.550Z,92.4
2019-03-03T04:20:50.683Z,92.7
2019-03-03T04:22:50.410Z,92.1
2019-03-03T04:24:50.593Z,92.3
2019-03-03T04:26:50.944Z,91.8
2019-03-03T04:28:50.323Z,91.9
2019-03-03T04:30:50.509Z,91.8
2019-03-03T04:32:50.785Z,91.5
2019-03-03T04:34:50.238Z,91.4
2019-03-03T04:36:50.558Z,91.3
2019-03-03T04:38:50.849Z,91.5
2019-03-03T04:40:50.160Z,91.4
2019-03-03T04:42:50.433Z,91.6
2019-03-03T04:44:50.613Z,92.6
2019-03-03T04:46:50.003Z,92.9
2019-03-03T04:48:50.151Z,93.3
2019-03-03T04:50:50.223Z,92.9
2019-03-03T04:52:50.443Z,92.8
2019-03-03T04:54:50.626Z,92.6
2019-03-03T04:56:50.217Z,92.7
2019-03-03T04:58:50.440Z,91.9
2019-03-03T05:00:50.720Z,91.8
2019-03-03T05:02:50.055Z,91.7
2019-03-03T05:04:50.652Z,92.9
2019-03-03T05:06:50.440Z,92.7
2019-03-03T05:08:50.502Z,93.0
2019-03-03T05:10:50.022Z,93.1
2019-03-03T05:12:50.194Z,92.4
2019-03-03T05:14:50.351Z,92.4
2019-03-03T05:16:50.610Z,92.4
2019-03-03T05:18:50.556Z,92.4
2019-03-03T05:20:50.736Z,91.5
2019-03-03T05:22:50.864Z,91.7
2019-03-03T05:24:50.128Z,92.2
2019-03-03T05:26:50.008Z,92.5
2019-03-03T05:28:50.193Z,92.0
2019-03-03T05:30:50.380Z,91.4
2019-03-03T05:32:50.598Z,92.3
2019-03-03T05:34:50.349Z,91.5
2019-03-03T05:36:50.652Z,91.0
2019-03-03T05:38:50.778Z,91.4
2019-03-03T05:40:50.940Z,90.6
2019-03-03T05:42:50.179Z,90.3
2019-03-03T05:44:50.387Z,90.2
2019-03-03T05:46:50.632Z,89.7
2019-03-03T05:48:50.862Z,89.4
2019-03-03T05:50:50.192Z,89.8
2019-03-03T05:52:50.374Z,89.8
2019-03-03T05:54:50.567Z,89.7
2019-03-03T05:56:50.784Z,89.1
2019-03-03T05:58:49.960Z,89.2
2019-03-03T06:00:50.251Z,89.2
2019-03-03T06:02:50.536Z,89.2
2019-03-03T06:04:50.125Z,89.4
2019-03-03T06:06:50.505Z,88.8
2019-03-03T06:08:50.727Z,88.9
2019-03-03T06:10:50.894Z,88.8
2019-03-03T06:12:50.152Z,88.8
2019-03-03T06:14:50.274Z,89.5
2019-03-03T06:16:50.577Z,88.8
2019-03-03T06:18:50.755Z,88.0
2019-03-03T06:20:49.977Z,88.2
2019-03-03T06:22:50.249Z,88.0
2019-03-03T06:24:50.385Z,88.0
2019-03-03T06:26:50.610Z,89.1
2019-03-03T06:28:50.923Z,89.6
2019-03-03T06:30:50.154Z,89.5
2019-03-03T06:32:50.291Z,89.1
2019-03-03T06:34:50.820Z,89.2
2019-03-03T06:36:50.884Z,88.7
2019-03-03T06:38:50.129Z,89.3
2019-03-03T06:40:50.354Z,88.5
2019-03-03T06:42:50.493Z,87.6
2019-03-03T06:44:50.711Z,87.6
2019-03-03T06:46:50.275Z,87.3
2019-03-03T06:48:50.530Z,87.1
2019-03-03T06:50:50.654Z,87.7
2019-03-03T06:52:50.805Z,86.9
2019-03-03T06:54:50.025Z,86.7
2019-03-03T06:56:50.375Z,87.7
2019-03-03T06:58:50.553Z,87.0
2019-03-03T07:00:50.738Z,85.3
2019-03-03T07:02:49.986Z,85.5
2019-03-03T07:04:50.495Z,85.8
2019-03-03T07:06:50.783Z,85.6
2019-03-03T07:08:49.945Z,84.6
2019-03-03T07:10:50.197Z,84.2
2019-03-03T07:12:50.390Z,84.5
2019-03-03T07:14:50.568Z,84.4
2019-03-03T07:16:50.851Z,84.2
2019-03-03T07:18:50.038Z,84.0
2019-03-03T07:20:50.215Z,84.5
2019-03-03T07:22:50.402Z,84.2
2019-03-03T07:24:50.498Z,84.2
2019-03-03T07:26:50.818Z,84.2
2019-03-03T07:28:50.074Z,83.4
2019-03-03T07:30:50.210Z,83.6
2019-03-03T07:32:50.342Z,85.0
2019-03-03T07:34:50.941Z,82.6
2019-03-03T07:36:50.367Z,82.6
2019-03-03T07:38:50.508Z,81.9
2019-03-03T07:40:50.635Z,82.6
2019-03-03T07:42:50.806Z,81.6
2019-03-03T07:44:50.104Z,79.9
2019-03-03T07:46:50.423Z,79.9
2019-03-03T07:48:50.590Z,80.8
2019-03-03T07:50:50.833Z,80.5
2019-03-03T07:52:50.181Z,79.6
2019-03-03T07:54:50.278Z,79.8
2019-03-03T07:56:50.772Z,79.2
2019-03-03T07:58:49.991Z,78.4
2019-03-03T08:00:50.206Z,78.5
2019-03-03T08:02:50.363Z,77.8
2019-03-03T08:04:50.886Z,78.4
2019-03-03T08:06:50.291Z,79.3
2019-03-03T08:08:50.402Z,79.3
2019-03-03T08:10:50.584Z,79.7
2019-03-03T08:12:50.774Z,78.2
2019-03-03T08:14:50.023Z,78.6
2019-03-03T08:16:50.348Z,78.5
2019-03-03T08:18:50.467Z,79.0
2019-03-03T08:20:50.710Z,78.0
2019-03-03T08:22:50.008Z,77.6
2019-03-03T08:24:51.941Z,78.0
2019-03-03T08:26:50.206Z,78.5
2019-03-03T08:28:50.462Z,78.5
2019-03-03T08:30:50.622Z,77.6
2019-03-03T08:32:50.751Z,78.4
2019-03-03T08:34:50.397Z,77.5
2019-03-03T08:36:50.703Z,76.9
2019-03-03T08:38:50.069Z,77.3
2019-03-03T08:40:50.213Z,77.3
2019-03-03T08:42:50.358Z,77.2
2019-03-03T08:44:50.525Z,78.2
2019-03-03T08:46:50.924Z,76.8
2019-03-03T08:48:50.065Z,77.0
2019-03-03T08:50:50.735Z,77.3
2019-03-03T08:52:49.962Z,76.9
2019-03-03T08:54:50.230Z,77.0
2019-03-03T08:56:50.481Z,75.9
2019-03-03T08:58:50.720Z,75.7
2019-03-03T09:00:49.954Z,75.9
2019-03-03T09:02:50.203Z,75.5
2019-03-03T09:04:50.728Z,74.9
2019-03-03T09:06:50.084Z,74.7
2019-03-03T09:08:50.469Z,74.5
2019-03-03T09:10:50.637Z,74.8
2019-03-03T09:12:50.744Z,74.8
2019-03-03T09:14:49.958Z,75.6
2019-03-03T09:16:50.244Z,74.5
2019-03-03T09:18:50.415Z,74.0
2019-03-03T09:20:50.571Z,74.6
2019-03-03T09:22:50.461Z,73.9
2019-03-03T09:24:50.621Z,74.1
2019-03-03T09:26:50.075Z,74.3
2019-03-03T09:28:50.554Z,73.9
2019-03-03T09:30:50.784Z,73.8
2019-03-03T09:32:50.910Z,73.7
2019-03-03T09:34:50.890Z,73.7
2019-03-03T09:36:50.223Z,74.1
2019-03-03T09:38:50.416Z,73.1
2019-03-03T09:40:50.803Z,73.6
2019-03-03T09:42:50.018Z,73.2
2019-03-03T09:44:49.977Z,72.4
2019-03-03T09:46:50.674Z,72.1
2019-03-03T09:48:50.545Z,72.2
2019-03-03T09:50:50.764Z,72.9
2019-03-03T09:52:50.059Z,71.4
2019-03-03T09:54:51.025Z,71.5
2019-03-03T09:56:50.681Z,71.3
2019-03-03T09:58:49.964Z,71.4
2019-03-03T10:00:50.208Z,70.5
2019-03-03T10:02:50.139Z,69.7
2019-03-03T10:04:50.542Z,69.6
2019-03-03T10:06:50.614Z,69.6
2019-03-03T10:08:50.849Z,69.7
2019-03-03T10:10:50.061Z,69.3
2019-03-03T10:12:50.203Z,69.7
2019-03-03T10:14:50.330Z,69.3
2019-03-03T10:16:50.680Z,69.3
2019-03-03T10:18:50.811Z,70.0
2019-03-03T10:20:50.008Z,69.6
2019-03-03T10:22:50.207Z,70.1
2019-03-03T10:24:50.384Z,69.8
2019-03-03T10:26:50.594Z,69.1
2019-03-03T10:28:50.787Z,69.1
2019-03-03T10:30:50.472Z,69.8
2019-03-03T10:32:50.683Z,69.7
2019-03-03T10:34:50.230Z,68.2
2019-03-03T10:36:50.717Z,68.5
2019-03-03T10:38:49.953Z,67.8
2019-03-03T10:40:50.149Z,67.2
2019-03-03T10:42:50.354Z,67.7
2019-03-03T10:44:50.437Z,67.2
2019-03-03T10:46:50.753Z,67.2
2019-03-03T10:48:49.989Z,68.5
2019-03-03T10:50:50.208Z,67.3
2019-03-03T10:52:50.474Z,67.5
2019-03-03T10:54:50.654Z,66.4
2019-03-03T10:56:50.291Z,66.7
2019-03-03T10:58:50.451Z,67.0
2019-03-03T11:00:50.654Z,66.9
2019-03-03T11:02:50.427Z,65.8
2019-03-03T11:04:50.038Z,65.9
2019-03-03T11:06:50.294Z,66.5
2019-03-03T11:08:50.736Z,66.0
2019-03-03T11:10:58.380Z,67.7
2019-03-03T11:12:50.622Z,66.9
2019-03-03T11:14:50.035Z,66.9
2019-03-03T11:16:50.359Z,67.6
2019-03-03T11:18:56.819Z,67.9
2019-03-03T11:20:50.063Z,67.7
2019-03-03T11:22:50.891Z,68.1
2019-03-03T11:24:50.718Z,68.4
2019-03-03T11:26:50.878Z,68.5
2019-03-03T11:28:50.034Z,70.4
2019-03-03T11:30:50.232Z,70.0
2019-03-03T11:32:50.286Z,68.8
2019-03-03T11:34:50.728Z,68.9
2019-03-03T11:36:50.026Z,69.6
2019-03-03T11:38:50.725Z,70.2
2019-03-03T11:40:50.066Z,69.9
2019-03-03T11:42:50.201Z,69.1
2019-03-03T11:44:50.023Z,69.6
2019-03-03T11:46:50.222Z,69.9
2019-03-03T11:48:50.371Z,68.7
2019-03-03T11:50:50.586Z,70.2
2019-03-03T11:52:50.847Z,68.2
2019-03-03T11:54:49.929Z,68.6
2019-03-03T11:56:50.465Z,68.4
2019-03-03T11:58:50.758Z,68.2
2019-03-03T12:00:50.862Z,67.7
2019-03-03T12:02:54.600Z,68.8
2019-03-03T12:04:50.282Z,68.3
2019-03-03T12:06:51.151Z,68.2
2019-03-03T12:08:50.233Z,68.1
2019-03-03T12:10:50.333Z,67.9
2019-03-03T12:12:50.539Z,67.9
2019-03-03T12:14:50.569Z,68.3
2019-03-03T12:16:50.792Z,66.7
2019-03-03T12:18:50.019Z,66.5
2019-03-03T12:20:50.195Z,66.3
2019-03-03T12:22:50.372Z,65.3
2019-03-03T12:24:50.908Z,65.8
2019-03-03T12:26:50.236Z,65.6
2019-03-03T12:28:50.398Z,65.7
2019-03-03T12:30:50.545Z,65.4
2019-03-03T12:32:50.216Z,67.0
2019-03-03T12:34:50.755Z,66.7
2019-03-03T12:36:50.147Z,65.9
2019-03-03T12:38:50.853Z,66.1
2019-03-03T12:40:50.114Z,66.5
2019-03-03T12:42:50.000Z,66.4
2019-03-03T12:44:50.088Z,66.3
2019-03-03T12:46:50.348Z,66.1
2019-03-03T12:48:50.483Z,66.7
2019-03-03T12:50:50.579Z,67.2
2019-03-03T12:52:51.313Z,66.6
2019-03-03T12:54:50.756Z,66.7
2019-03-03T12:56:50.669Z,67.2
2019-03-03T12:58:50.925Z,66.7
2019-03-03T13:00:50.042Z,66.9
2019-03-03T13:02:50.192Z,66.5
2019-03-03T13:04:50.799Z,66.9
2019-03-03T13:06:50.055Z,67.2
2019-03-03T13:09:00.444Z,67.4
2019-03-03T13:10:50.605Z,67.0
2019-03-03T13:12:50.779Z,66.7
2019-03-03T13:14:50.971Z,67.1
2019-03-03T13:16:50.302Z,67.7
2019-03-03T13:18:50.431Z,69.2
2019-03-03T13:20:50.481Z,67.6
2019-03-03T13:22:50.620Z,68.2
2019-03-03T13:24:50.987Z,69.5
2019-03-03T13:26:50.406Z,68.6
2019-03-03T13:28:50.677Z,68.8
2019-03-03T13:30:49.969Z,68.2
2019-03-03T13:32:50.084Z,67.8
2019-03-03T13:34:50.529Z,68.2
2019-03-03T13:36:50.783Z,69.0
2019-03-03T13:38:49.957Z,68.3
2019-03-03T13:40:50.074Z,67.4
2019-03-03T13:42:50.498Z,67.4
2019-03-03T13:44:50.475Z,67.7
2019-03-03T13:46:50.756Z,67.7
2019-03-03T13:48:51.914Z,68.1
2019-03-03T13:50:50.144Z,67.4
2019-03-03T13:52:50.316Z,67.7
2019-03-03T13:54:50.506Z,67.7
2019-03-03T13:56:50.803Z,67.5
2019-03-03T13:58:50.938Z,67.6
2019-03-03T14:00:50.091Z,68.1
2019-03-03T14:02:50.289Z,68.7
2019-03-03T14:04:50.790Z,68.6
2019-03-03T14:06:50.132Z,68.7
2019-03-03T14:08:50.248Z,69.4
2019-03-03T14:10:50.516Z,68.4
2019-03-03T14:12:50.674Z,69.0
2019-03-03T14:14:50.832Z,68.8
2019-03-03T14:16:50.062Z,68.8
2019-03-03T14:18:50.263Z,68.6
2019-03-03T14:20:50.454Z,67.8
2019-03-03T14:22:50.587Z,68.0
2019-03-03T14:24:50.767Z,67.5
2019-03-03T14:26:50.172Z,67.8
2019-03-03T14:28:50.326Z,68.2
2019-03-03T14:30:50.502Z,68.5
2019-03-03T14:32:50.648Z,67.6
2019-03-03T14:34:50.205Z,68.4
2019-03-03T14:36:50.359Z,68.4
2019-03-03T14:38:50.471Z,67.9
2019-03-03T14:40:50.595Z,68.1
2019-03-03T14:42:50.758Z,67.7
2019-03-03T14:44:49.980Z,67.7
2019-03-03T14:46:50.378Z,67.4
2019-03-03T14:48:50.493Z,67.7
2019-03-03T14:50:50.737Z,68.1
2019-03-03T14:52:50.044Z,67.7
2019-03-03T14:54:50.163Z,68.1
2019-03-03T14:56:50.374Z,68.9
2019-03-03T14:58:50.531Z,69.3
2019-03-03T15:00:50.687Z,67.6
2019-03-03T15:02:50.814Z,67.9
2019-03-03T15:04:50.407Z,68.3
2019-03-03T15:06:50.566Z,67.6
2019-03-03T15:08:50.627Z,67.1
2019-03-03T15:10:50.762Z,67.7
2019-03-03T15:12:50.002Z,67.8
2019-03-03T15:14:50.134Z,67.2
2019-03-03T15:16:50.406Z,67.2
2019-03-03T15:18:50.528Z,67.7
2019-03-03T15:20:50.701Z,67.6
2019-03-03T15:22:50.840Z,67.8
2019-03-03T15:24:50.099Z,67.3
2019-03-03T15:26:50.399Z,67.1
2019-03-03T15:28:50.534Z,67.7
2019-03-03T15:30:50.815Z,67.4
2019-03-03T15:32:50.051Z,67.4
2019-03-03T15:34:50.534Z,67.5
2019-03-03T15:36:50.836Z,67.3
2019-03-03T15:38:49.996Z,67.7
2019-03-03T15:40:50.186Z,67.8
2019-03-03T15:42:50.283Z,68.4
2019-03-03T15:44:50.363Z,68.9
2019-03-03T15:46:50.700Z,68.6
2019-03-03T15:48:49.984Z,67.9
2019-03-03T15:50:50.144Z,68.2
2019-03-03T15:52:50.284Z,67.9
2019-03-03T15:54:50.517Z,68.1
2019-03-03T15:56:50.796Z,69.9
2019-03-03T15:58:56.451Z,68.4
2019-03-03T16:00:50.553Z,67.7
2019-03-03T16:02:50.806Z,67.9
2019-03-03T16:04:50.269Z,67.9
2019-03-03T16:06:50.544Z,67.9
2019-03-03T16:08:50.767Z,68.0
2019-03-03T16:10:50.916Z,68.0
2019-03-03T16:12:50.128Z,68.7
2019-03-03T16:14:50.272Z,68.1
2019-03-03T16:16:50.534Z,67.9
2019-03-03T16:18:52.762Z,68.0
2019-03-03T16:20:49.958Z,68.3
2019-03-03T16:22:50.171Z,69.4
2019-03-03T16:24:50.256Z,68.7
2019-03-03T16:26:50.547Z,69.2
2019-03-03T16:28:50.751Z,69.2
2019-03-03T16:30:50.837Z,68.8
2019-03-03T16:32:50.082Z,69.3
2019-03-03T16:34:50.692Z,69.3
2019-03-03T16:36:50.009Z,69.1
2019-03-03T16:38:50.165Z,69.5
2019-03-03T16:40:50.459Z,70.8
2019-03-03T16:42:50.692Z,71.0
2019-03-03T16:44:50.821Z,70.4
2019-03-03T16:46:50.216Z,70.4
2019-03-03T16:48:50.466Z,70.9
2019-03-03T16:50:50.662Z,71.5
2019-03-03T16:52:50.755Z,71.6
2019-03-03T16:54:49.965Z,70.9
2019-03-03T16:56:50.398Z,70.6
2019-03-03T16:58:50.551Z,71.5
2019-03-03T17:00:50.730Z,72.1
2019-03-03T17:02:50.871Z,72.0
2019-03-03T17:04:50.469Z,71.5
2019-03-03T17:06:50.872Z,71.6
2019-03-03T17:08:50.084Z,71.7
2019-03-03T17:10:50.265Z,71.7
2019-03-03T17:12:50.397Z,72.1
2019-03-03T17:14:50.682Z,72.2
2019-03-03T17:16:50.027Z,72.5
2019-03-03T17:18:50.161Z,72.1
2019-03-03T17:20:50.279Z,72.7
2019-03-03T17:22:50.503Z,72.3
2019-03-03T17:24:50.672Z,72.1
2019-03-03T17:26:50.858Z,72.7
2019-03-03T17:28:50.039Z,72.8
2019-03-03T17:30:50.232Z,73.7
2019-03-03T17:32:50.394Z,74.4
2019-03-03T17:34:50.848Z,73.0
2019-03-03T17:36:50.314Z,74.2
2019-03-03T17:38:50.486Z,73.2
2019-03-03T17:40:50.649Z,73.0
2019-03-03T17:42:50.838Z,73.9
2019-03-03T17:44:50.093Z,73.0
2019-03-03T17:46:50.406Z,73.3
2019-03-03T17:48:50.588Z,72.6
2019-03-03T17:50:50.732Z,73.0
2019-03-03T17:52:49.803Z,74.1
2019-03-03T17:54:49.927Z,73.2
2019-03-03T17:56:50.196Z,73.7
2019-03-03T17:58:50.705Z,74.8
2019-03-03T18:00:50.926Z,74.8
2019-03-03T18:02:50.439Z,74.7
2019-03-03T18:04:50.220Z,75.4
2019-03-03T18:06:50.564Z,75.6
2019-03-03T18:08:50.685Z,74.6
2019-03-03T18:10:50.844Z,75.2
2019-03-03T18:12:49.983Z,77.3
2019-03-03T18:14:50.115Z,75.7
2019-03-03T18:16:50.523Z,75.9
2019-03-03T18:18:50.834Z,76.2
2019-03-03T18:20:50.093Z,76.1
2019-03-03T18:22:50.429Z,76.3
2019-03-03T18:24:50.651Z,76.8
2019-03-03T18:26:50.122Z,77.4
2019-03-03T18:28:50.239Z,77.9
2019-03-03T18:30:50.352Z,78.4
2019-03-03T18:32:50.522Z,77.5
2019-03-03T18:34:49.948Z,78.6
2019-03-03T18:36:50.518Z,78.6
2019-03-03T18:38:50.860Z,79.5
2019-03-03T18:40:50.105Z,79.4
2019-03-03T18:42:50.325Z,79.3
2019-03-03T18:44:50.635Z,78.9
2019-03-03T18:46:49.992Z,79.0
2019-03-03T18:48:50.281Z,79.3
2019-03-03T18:50:50.507Z,79.5
2019-03-03T18:52:50.670Z,80.3
2019-03-03T18:54:49.999Z,78.9
2019-03-03T18:56:50.308Z,78.9
2019-03-03T18:58:50.530Z,79.0
2019-03-03T19:00:50.789Z,79.0
2019-03-03T19:02:50.054Z,78.6
2019-03-03T19:04:50.558Z,79.0
2019-03-03T19:06:50.908Z,79.0
2019-03-03T19:08:50.135Z,79.1
2019-03-03T19:10:50.289Z,78.4
2019-03-03T19:12:50.373Z,79.2
2019-03-03T19:14:50.613Z,79.7
2019-03-03T19:16:50.053Z,80.1
2019-03-03T19:18:50.214Z,79.9
2019-03-03T19:20:50.157Z,79.3
2019-03-03T19:22:50.249Z,80.3
2019-03-03T19:24:50.374Z,80.5
2019-03-03T19:26:50.711Z,80.1
2019-03-03T19:28:50.895Z,80.0
2019-03-03T19:30:50.154Z,80.0
2019-03-03T19:32:50.391Z,80.0
2019-03-03T19:34:49.954Z,79.7
2019-03-03T19:36:50.258Z,80.1
2019-03-03T19:38:50.501Z,79.4
2019-03-03T19:40:50.683Z,79.2
2019-03-03T19:42:49.955Z,79.6
2019-03-03T19:44:50.256Z,79.6
2019-03-03T19:46:50.637Z,79.8
2019-03-03T19:48:50.864Z,78.3
2019-03-03T19:50:49.991Z,79.0
2019-03-03T19:52:50.172Z,79.2
2019-03-03T19:54:50.426Z,79.2
2019-03-03T19:56:50.905Z,79.9
2019-03-03T19:58:50.059Z,79.9
2019-03-03T20:00:50.316Z,78.7
2019-03-03T20:02:50.351Z,78.7
2019-03-03T20:04:49.942Z,77.6
2019-03-03T20:06:50.452Z,77.9
2019-03-03T20:08:50.826Z,78.1
2019-03-03T20:10:49.896Z,78.1
2019-03-03T20:12:50.073Z,77.5
2019-03-03T20:14:50.250Z,77.7
2019-03-03T20:16:50.574Z,77.0
2019-03-03T20:18:50.842Z,77.7
2019-03-03T20:20:50.020Z,78.8
2019-03-03T20:22:50.198Z,78.6
2019-03-03T20:24:50.390Z,79.6
2019-03-03T20:26:50.733Z,79.5
2019-03-03T20:28:51.333Z,80.2
2019-03-03T20:30:50.546Z,80.7
2019-03-03T20:32:50.842Z,80.8
2019-03-03T20:34:50.536Z,80.9
2019-03-03T20:36:50.823Z,80.9
2019-03-03T20:38:50.080Z,80.8
2019-03-03T20:40:50.278Z,80.6
2019-03-03T20:42:50.593Z,80.0
2019-03-03T20:44:50.901Z,80.4
2019-03-03T20:46:50.355Z,80.0
2019-03-03T20:48:50.534Z,80.0
2019-03-03T20:50:50.790Z,79.7
2019-03-03T20:52:50.147Z,78.9
2019-03-03T20:54:50.292Z,79.1
2019-03-03T20:56:50.538Z,79.5
2019-03-03T20:58:50.706Z,79.3
2019-03-03T21:00:50.831Z,78.8
2019-03-03T21:02:50.008Z,79.1
2019-03-03T21:04:50.428Z,77.9
2019-03-03T21:06:50.675Z,77.9
2019-03-03T21:08:50.946Z,79.4
2019-03-03T21:10:50.110Z,78.1
2019-03-03T21:12:50.284Z,79.1
2019-03-03T21:14:50.422Z,78.4
2019-03-03T21:16:50.770Z,79.1
2019-03-03T21:18:49.967Z,78.3
2019-03-03T21:20:50.230Z,79.4
2019-03-03T21:22:50.459Z,78.3
2019-03-03T21:24:50.595Z,78.0
2019-03-03T21:26:50.793Z,78.7
2019-03-03T21:28:50.161Z,78.4
2019-03-03T21:30:50.491Z,78.2
2019-03-03T21:32:50.655Z,78.8
2019-03-03T21:34:50.145Z,78.2
2019-03-03T21:36:50.375Z,78.0
2019-03-03T21:38:50.592Z,78.0
2019-03-03T21:40:50.677Z,78.0
2019-03-03T21:42:49.989Z,77.9
2019-03-03T21:44:50.174Z,79.3
2019-03-03T21:46:52.273Z,78.6
2019-03-03T21:48:50.407Z,78.1
2019-03-03T21:50:50.580Z,79.6
2019-03-03T21:52:50.788Z,79.0
2019-03-03T21:54:49.970Z,79.1
2019-03-03T21:56:50.534Z,79.2
2019-03-03T21:58:50.808Z,78.8
2019-03-03T22:00:50.081Z,79.0
2019-03-03T22:02:50.284Z,78.6
2019-03-03T22:04:50.715Z,79.0
2019-03-03T22:06:50.120Z,78.5
2019-03-03T22:08:50.375Z,78.6
2019-03-03T22:10:50.547Z,79.5
2019-03-03T22:12:50.754Z,79.3
2019-03-03T22:14:49.992Z,79.3
2019-03-03T22:16:51.034Z,79.4
2019-03-03T22:18:50.164Z,78.9
2019-03-03T22:20:50.367Z,78.8
2019-03-03T22:22:50.596Z,79.7
2019-03-03T22:24:50.792Z,79.0
2019-03-03T22:26:50.120Z,79.2
2019-03-03T22:28:50.334Z,79.7
2019-03-03T22:30:50.268Z,79.8
2019-03-03T22:32:50.525Z,79.5
2019-03-03T22:34:50.113Z,78.8
2019-03-03T22:36:50.433Z,79.3
2019-03-03T22:38:50.544Z,78.6
2019-03-03T22:40:50.777Z,79.4
2019-03-03T22:42:49.994Z,79.0
2019-03-03T22:44:50.187Z,79.2
2019-03-03T22:46:50.636Z,79.4
2019-03-03T22:48:50.820Z,79.6
2019-03-03T22:50:49.968Z,79.0
2019-03-03T22:52:50.288Z,79.1
2019-03-03T22:54:50.516Z,79.9
2019-03-03T22:56:50.036Z,80.0
2019-03-03T22:58:50.148Z,79.8
2019-03-03T23:00:50.308Z,79.3
2019-03-03T23:02:50.511Z,79.4
2019-03-03T23:04:50.171Z,79.8
2019-03-03T23:06:50.490Z,80.1
2019-03-03T23:08:50.677Z,80.2
2019-03-03T23:10:50.061Z,79.7
2019-03-03T23:12:50.206Z,79.8
2019-03-03T23:14:50.402Z,79.8
2019-03-03T23:16:50.775Z,79.7
2019-03-03T23:18:50.276Z,78.5
2019-03-03T23:20:50.538Z,79.4
2019-03-03T23:22:50.743Z,78.5
2019-03-03T23:24:50.026Z,78.1
2019-03-03T23:26:50.343Z,78.1
2019-03-03T23:28:50.533Z,79.5
2019-03-03T23:30:50.776Z,79.1
2019-03-03T23:32:49.931Z,79.2
2019-03-03T23:34:50.590Z,78.9
2019-03-03T23:36:49.971Z,79.2
2019-03-03T23:38:50.254Z,79.6
2019-03-03T23:40:50.441Z,80.0
2019-03-03T23:42:50.561Z,79.2
2019-03-03T23:44:50.924Z,79.6
2019-03-03T23:46:50.257Z,79.0
2019-03-03T23:48:50.410Z,79.0
2019-03-03T23:50:50.583Z,80.0
2019-03-03T23:52:50.558Z,78.9
2019-03-03T23:54:50.763Z,79.4
2019-03-03T23:56:50.157Z,79.9
2019-03-03T23:58:50.277Z,79.2
